Honey Creek, Wisconsin
Current Conditions -  °F | °C
As of 8:35 PM on Tuesday 21 Oct 2014 (Local Time) from KBUU Reporting Station
Haze Haze  
Wind Chill: 33°   Ceiling: 700
Heat Index: 33°   Visibility: 1.2mi
Dew Point: 32°   Wind: 0mph
Humidity: 99%   Direction: NA
Pressure: 30.26"   Gusts: NA
Location:  42.75°N, 88.31°W
Report Text: KBUU 220135Z AUTO 00000KT 1 1/4SM BR VV007 00/00 A3026 RMK AO2 VIS 1/2V5 T00030001
Loading
Personal Weather Stations






























Interactive Weather Map
Tropical Storm Tracking
New forecast layout! Learn more

10-Day Weather Forecast

Advertisements
Track Severe Weather on mobile